createdAt,value
2017-07-25T00:00:27.314Z,91.10
2017-07-25T00:02:55.582Z,90.50
2017-07-25T00:05:23.026Z,90.40
2017-07-25T00:07:50.526Z,90.80
2017-07-25T00:10:18.072Z,91.10
2017-07-25T00:12:45.608Z,91.40
2017-07-25T00:15:13.079Z,90.70
2017-07-25T00:17:41.309Z,91.50
2017-07-25T00:20:08.857Z,91.40
2017-07-25T00:22:36.397Z,90.70
2017-07-25T00:25:04.045Z,91.20
2017-07-25T00:27:31.593Z,90.70
2017-07-25T00:29:59.073Z,90.90
2017-07-25T00:32:26.610Z,91.20
2017-07-25T00:34:54.150Z,91.80
2017-07-25T00:37:22.418Z,91.50
2017-07-25T00:39:49.898Z,91.50
2017-07-25T00:42:17.427Z,92.20
2017-07-25T00:44:45.821Z,91.50
2017-07-25T00:47:13.302Z,91.50
2017-07-25T00:49:40.901Z,91.70
2017-07-25T00:52:08.531Z,91.60
2017-07-25T00:54:36.070Z,91.60
2017-07-25T00:57:03.547Z,91.50
2017-07-25T00:59:31.253Z,91.80
2017-07-25T01:01:59.518Z,92.20
2017-07-25T01:04:26.994Z,92.20
2017-07-25T01:06:54.519Z,92.30
2017-07-25T01:09:22.014Z,92.40
2017-07-25T01:11:49.491Z,92.90
2017-07-25T01:14:17.026Z,93.30
2017-07-25T01:16:44.573Z,92.20
2017-07-25T01:19:12.115Z,92.60
2017-07-25T01:21:39.810Z,92.80
2017-07-25T01:24:07.301Z,92.60
2017-07-25T01:26:35.561Z,93.10
2017-07-25T01:29:03.830Z,93.00
2017-07-25T01:31:31.302Z,93.00
2017-07-25T01:33:58.774Z,92.60
2017-07-25T01:36:29.997Z,92.90
2017-07-25T01:38:57.470Z,93.00
2017-07-25T01:41:25.729Z,93.20
2017-07-25T01:43:54.094Z,93.40
2017-07-25T01:46:21.634Z,93.30
2017-07-25T01:48:49.874Z,93.20
2017-07-25T01:51:17.438Z,93.20
2017-07-25T01:53:45.698Z,93.90
2017-07-25T01:56:13.963Z,93.40
2017-07-25T01:58:41.506Z,93.40
2017-07-25T02:01:08.982Z,93.90
2017-07-25T02:03:36.458Z,93.60
2017-07-25T02:06:03.946Z,93.80
2017-07-25T02:08:31.474Z,94.20
2017-07-25T02:10:59.737Z,94.10
2017-07-25T02:13:27.277Z,94.10
2017-07-25T02:15:54.754Z,93.50
2017-07-25T02:18:22.235Z,93.90
2017-07-25T02:20:49.806Z,94.60
2017-07-25T02:23:18.064Z,93.80
2017-07-25T02:25:46.325Z,93.80
2017-07-25T02:28:13.970Z,93.80
2017-07-25T02:30:42.231Z,93.80
2017-07-25T02:33:09.711Z,93.80
2017-07-25T02:35:37.388Z,94.50
2017-07-25T02:38:05.782Z,94.10
2017-07-25T02:40:34.054Z,93.40
2017-07-25T02:43:01.558Z,93.40
2017-07-25T02:45:29.029Z,93.70
2017-07-25T02:47:57.266Z,94.50
2017-07-25T02:50:24.834Z,94.50
2017-07-25T02:52:53.074Z,93.60
2017-07-25T02:55:20.642Z,93.60
2017-07-25T02:57:48.989Z,93.70
2017-07-25T03:00:16.462Z,93.60
2017-07-25T03:02:43.989Z,93.10
2017-07-25T03:05:11.531Z,93.90
2017-07-25T03:07:39.894Z,93.40
2017-07-25T03:10:08.134Z,93.80
2017-07-25T03:12:35.902Z,93.70
2017-07-25T03:15:04.142Z,94.00
2017-07-25T03:17:31.614Z,93.90
2017-07-25T03:19:59.285Z,94.20
2017-07-25T03:22:26.794Z,94.30
2017-07-25T03:24:55.054Z,95.00
2017-07-25T03:27:22.599Z,94.90
2017-07-25T03:29:50.142Z,94.60
2017-07-25T03:32:17.681Z,94.30
2017-07-25T03:34:45.954Z,94.70
2017-07-25T03:37:13.491Z,94.60
2017-07-25T03:39:40.971Z,94.80
2017-07-25T03:42:08.666Z,94.40
2017-07-25T03:44:36.951Z,94.60
2017-07-25T03:47:04.479Z,94.50
2017-07-25T03:49:32.022Z,94.90
2017-07-25T03:52:00.286Z,94.80
2017-07-25T03:54:27.827Z,94.80
2017-07-25T03:56:55.307Z,95.20
2017-07-25T03:59:22.906Z,95.30
2017-07-25T04:01:51.145Z,95.20
2017-07-25T04:04:18.610Z,95.20
2017-07-25T04:06:46.883Z,94.50
2017-07-25T04:09:14.354Z,94.50
2017-07-25T04:11:41.834Z,94.90
2017-07-25T04:14:09.346Z,94.90
2017-07-25T04:16:37.038Z,94.20
2017-07-25T04:19:05.310Z,94.80
2017-07-25T04:21:32.781Z,94.80
2017-07-25T04:24:00.370Z,94.90
2017-07-25T04:26:28.610Z,94.70
2017-07-25T04:28:56.082Z,94.40
2017-07-25T04:31:24.449Z,94.50
2017-07-25T04:33:52.715Z,94.60
2017-07-25T04:36:20.194Z,94.60
2017-07-25T04:38:47.707Z,94.70
2017-07-25T04:41:15.966Z,94.80
2017-07-25T04:43:43.510Z,94.80
2017-07-25T04:46:11.262Z,94.70
2017-07-25T04:48:39.521Z,94.90
2017-07-25T04:51:07.785Z,95.10
2017-07-25T04:53:35.526Z,95.20
2017-07-25T04:56:03.790Z,95.00
2017-07-25T04:58:31.334Z,94.90
2017-07-25T05:00:58.829Z,94.90
2017-07-25T05:03:26.313Z,95.10
2017-07-25T05:05:54.578Z,95.70
2017-07-25T05:08:22.118Z,95.60
2017-07-25T05:10:50.377Z,95.10
2017-07-25T05:13:18.639Z,95.00
2017-07-25T05:15:46.182Z,95.00
2017-07-25T05:18:14.442Z,95.40
2017-07-25T05:20:42.703Z,95.30
2017-07-25T05:23:10.465Z,95.30
2017-07-25T05:25:37.938Z,94.90
2017-07-25T05:28:05.443Z,95.30
2017-07-25T05:30:32.987Z,95.10
2017-07-25T05:33:00.466Z,95.20
2017-07-25T05:35:27.966Z,94.90
2017-07-25T05:37:55.470Z,94.50
2017-07-25T05:40:23.756Z,94.10
2017-07-25T05:42:51.293Z,94.10
2017-07-25T05:45:19.662Z,94.70
2017-07-25T05:47:47.134Z,94.70
2017-07-25T05:50:14.614Z,94.30
2017-07-25T05:52:42.186Z,94.50
2017-07-25T05:55:10.446Z,94.10
2017-07-25T05:57:38.706Z,93.80
2017-07-25T06:00:06.203Z,93.70
2017-07-25T06:02:33.690Z,94.40
2017-07-25T06:05:01.954Z,93.70
2017-07-25T06:07:30.231Z,94.10
2017-07-25T06:09:57.758Z,94.10
2017-07-25T06:12:25.996Z,94.10
2017-07-25T06:14:54.446Z,94.60
2017-07-25T06:17:21.917Z,94.50
2017-07-25T06:19:50.181Z,94.40
2017-07-25T06:22:18.461Z,94.30
2017-07-25T06:24:45.981Z,94.30
2017-07-25T06:27:14.218Z,93.10
2017-07-25T06:29:41.790Z,93.10
2017-07-25T06:32:10.028Z,94.00
2017-07-25T06:34:37.500Z,93.90
2017-07-25T06:37:05.233Z,93.50
2017-07-25T06:39:32.714Z,93.20
2017-07-25T06:42:00.974Z,93.10
2017-07-25T06:44:29.218Z,92.50
2017-07-25T06:46:57.458Z,92.40
2017-07-25T06:49:24.931Z,92.00
2017-07-25T06:51:52.415Z,92.80
2017-07-25T06:54:19.919Z,93.00
2017-07-25T06:56:48.157Z,92.70
2017-07-25T06:59:15.634Z,92.70
2017-07-25T07:01:43.168Z,91.70
2017-07-25T07:04:10.708Z,92.70
2017-07-25T07:06:38.253Z,92.90
2017-07-25T07:09:05.774Z,93.00
2017-07-25T07:11:34.058Z,92.90
2017-07-25T07:14:01.534Z,92.40
2017-07-25T07:16:29.042Z,92.10
2017-07-25T07:18:56.582Z,92.70
2017-07-25T07:21:24.101Z,92.90
2017-07-25T07:23:51.670Z,93.20
2017-07-25T07:26:19.906Z,92.90
2017-07-25T07:28:47.469Z,92.80
2017-07-25T07:31:15.726Z,93.30
2017-07-25T07:33:43.995Z,92.70
2017-07-25T07:36:11.579Z,92.70
2017-07-25T07:38:39.090Z,92.00
2017-07-25T07:41:06.624Z,92.30
2017-07-25T07:43:34.893Z,92.60
2017-07-25T07:46:02.426Z,92.60
2017-07-25T07:48:30.689Z,93.30
2017-07-25T07:50:58.922Z,93.10
2017-07-25T07:53:26.419Z,93.10
2017-07-25T07:55:53.929Z,93.20
2017-07-25T07:58:22.170Z,92.00
2017-07-25T08:00:49.650Z,92.00
2017-07-25T08:03:17.178Z,93.00
2017-07-25T08:05:45.438Z,93.20
2017-07-25T08:08:13.702Z,92.20
2017-07-25T08:10:41.970Z,91.30
2017-07-25T08:13:09.510Z,91.70
2017-07-25T08:15:37.250Z,92.10
2017-07-25T08:18:05.482Z,91.10
2017-07-25T08:20:32.947Z,91.10
2017-07-25T08:23:01.323Z,91.90
2017-07-25T08:25:28.853Z,91.90
2017-07-25T08:27:57.165Z,91.10
2017-07-25T08:30:24.761Z,91.00
2017-07-25T08:32:53.025Z,91.70
2017-07-25T08:35:21.281Z,91.40
2017-07-25T08:37:49.546Z,92.00
2017-07-25T08:40:17.011Z,91.90
2017-07-25T08:42:45.262Z,91.10
2017-07-25T08:45:13.530Z,90.60
2017-07-25T08:47:41.782Z,91.40
2017-07-25T08:50:10.026Z,90.70
2017-07-25T08:52:37.494Z,90.70
2017-07-25T08:55:05.850Z,89.20
2017-07-25T08:57:34.114Z,90.30
2017-07-25T09:00:02.369Z,91.30
2017-07-25T09:02:30.734Z,90.70
2017-07-25T09:04:58.966Z,90.80
2017-07-25T09:07:26.533Z,90.80
2017-07-25T09:09:54.806Z,90.90
2017-07-25T09:12:22.342Z,90.90
2017-07-25T09:14:50.578Z,91.60
2017-07-25T09:17:18.141Z,91.60
2017-07-25T09:19:46.382Z,90.60
2017-07-25T09:22:13.946Z,90.60
2017-07-25T09:24:42.193Z,90.80
2017-07-25T09:27:09.710Z,90.80
2017-07-25T09:29:37.182Z,90.90
2017-07-25T09:32:05.454Z,90.50
2017-07-25T09:34:33.914Z,89.30
2017-07-25T09:37:02.153Z,90.10
2017-07-25T09:39:29.621Z,90.10
2017-07-25T09:41:57.305Z,90.90
2017-07-25T09:44:24.834Z,90.60
2017-07-25T09:46:53.065Z,90.10
2017-07-25T09:49:20.738Z,90.10
2017-07-25T09:51:48.993Z,90.80
2017-07-25T09:54:17.262Z,90.60
2017-07-25T09:56:45.523Z,90.40
2017-07-25T09:59:13.759Z,90.90
2017-07-25T10:01:41.326Z,91.30
2017-07-25T10:04:09.594Z,91.20
2017-07-25T10:06:37.130Z,91.20
2017-07-25T10:09:05.366Z,91.80
2017-07-25T10:11:32.929Z,91.70
2017-07-25T10:14:01.193Z,91.40
2017-07-25T10:16:29.453Z,91.40
2017-07-25T10:18:57.726Z,91.40
2017-07-25T10:21:25.198Z,91.40
2017-07-25T10:23:52.702Z,91.60
2017-07-25T10:26:20.237Z,91.90
2017-07-25T10:28:48.506Z,92.40
2017-07-25T10:31:16.737Z,92.10
2017-07-25T10:33:44.238Z,92.10
2017-07-25T10:36:11.711Z,92.10
2017-07-25T10:38:39.986Z,93.20
2017-07-25T10:41:08.337Z,93.80
2017-07-25T10:43:36.610Z,93.50
2017-07-25T10:46:04.846Z,93.70
2017-07-25T10:48:32.415Z,93.70
2017-07-25T10:51:00.675Z,93.70
2017-07-25T10:53:28.905Z,93.00
2017-07-25T10:55:56.409Z,93.00
2017-07-25T10:58:23.872Z,93.00
2017-07-25T11:00:51.454Z,92.30
2017-07-25T11:03:19.917Z,92.60
2017-07-25T11:05:48.182Z,92.40
2017-07-25T11:08:16.429Z,92.50
2017-07-25T11:10:43.989Z,92.50
2017-07-25T11:13:12.253Z,92.50
2017-07-25T11:15:40.515Z,92.90
2017-07-25T11:18:08.059Z,92.90
2017-07-25T11:20:35.525Z,92.70
2017-07-25T11:23:02.999Z,92.60
2017-07-25T11:25:30.483Z,93.80
2017-07-25T11:27:58.830Z,92.80
2017-07-25T11:30:27.061Z,93.00
2017-07-25T11:32:54.546Z,93.00
2017-07-25T11:35:22.818Z,92.00
2017-07-25T11:37:50.346Z,92.00
2017-07-25T11:40:17.851Z,92.20
2017-07-25T11:42:46.090Z,90.30
2017-07-25T11:45:13.659Z,90.30
2017-07-25T11:47:41.932Z,91.30
2017-07-25T11:50:09.393Z,91.20
2017-07-25T11:52:36.874Z,89.60
2017-07-25T11:55:04.373Z,91.30
2017-07-25T11:57:31.833Z,90.90
2017-07-25T11:59:59.298Z,90.50
2017-07-25T12:02:26.778Z,90.10
2017-07-25T12:04:54.275Z,90.40
2017-07-25T12:07:21.755Z,90.60
2017-07-25T12:09:50.014Z,91.60
2017-07-25T12:12:18.374Z,93.10
2017-07-25T12:14:46.638Z,93.50
2017-07-25T12:17:14.899Z,92.40
2017-07-25T12:19:43.142Z,93.00
2017-07-25T12:22:11.415Z,93.20
2017-07-25T12:24:39.645Z,93.90
2017-07-25T12:27:07.217Z,93.90
2017-07-25T12:29:35.600Z,94.60
2017-07-25T12:32:03.131Z,94.60
2017-07-25T12:34:31.382Z,93.90
2017-07-25T12:36:59.746Z,94.10
2017-07-25T12:39:27.222Z,94.10
2017-07-25T12:41:54.689Z,94.70
2017-07-25T12:44:23.050Z,95.00
2017-07-25T12:46:51.318Z,94.80
2017-07-25T12:49:19.578Z,94.50
2017-07-25T12:51:47.078Z,94.50
2017-07-25T12:54:14.635Z,93.20
2017-07-25T12:56:42.098Z,93.40
2017-07-25T12:59:10.366Z,93.70
2017-07-25T13:01:50.405Z,92.80
2017-07-25T13:04:17.947Z,92.70
2017-07-25T13:06:46.205Z,93.60
2017-07-25T13:09:14.446Z,92.90
2017-07-25T13:11:42.006Z,93.00
2017-07-25T13:14:10.238Z,93.70
2017-07-25T13:16:37.811Z,93.60
2017-07-25T13:19:06.073Z,93.20
2017-07-25T13:21:34.297Z,91.20
2017-07-25T13:24:01.969Z,91.10
2017-07-25T13:26:30.238Z,92.50
2017-07-25T13:28:58.469Z,92.80
2017-07-25T13:31:26.043Z,92.70
2017-07-25T13:33:54.306Z,91.10
2017-07-25T13:36:21.794Z,91.10
2017-07-25T13:38:49.474Z,92.00
2017-07-25T13:41:17.706Z,92.30
2017-07-25T13:43:45.175Z,92.30
2017-07-25T13:46:13.674Z,92.70
2017-07-25T13:48:41.143Z,92.70
2017-07-25T13:51:08.609Z,92.70
2017-07-25T13:53:36.114Z,92.50
2017-07-25T13:56:03.606Z,92.60
2017-07-25T13:58:31.865Z,92.80
2017-07-25T14:01:00.226Z,92.20
2017-07-25T14:03:28.490Z,92.50
2017-07-25T14:05:56.725Z,92.90
2017-07-25T14:08:24.226Z,92.90
2017-07-25T14:10:51.738Z,93.40
2017-07-25T14:13:20.006Z,93.50
2017-07-25T14:15:47.537Z,93.40
2017-07-25T14:18:15.801Z,93.00
2017-07-25T14:20:44.039Z,91.30
2017-07-25T14:23:11.605Z,91.20
2017-07-25T14:25:40.221Z,92.90
2017-07-25T14:28:07.726Z,92.90
2017-07-25T14:30:35.258Z,92.30
2017-07-25T14:33:03.617Z,92.10
2017-07-25T14:35:31.854Z,92.40
2017-07-25T14:37:59.335Z,92.40
2017-07-25T14:40:27.006Z,92.00
2017-07-25T14:42:55.245Z,93.10
2017-07-25T14:45:22.814Z,93.00
2017-07-25T14:47:51.174Z,93.10
2017-07-25T14:50:19.443Z,93.60
2017-07-25T14:52:46.978Z,93.50
2017-07-25T14:55:15.337Z,94.10
2017-07-25T14:57:43.602Z,94.60
2017-07-25T15:00:11.153Z,94.60
2017-07-25T15:02:38.686Z,95.60
2017-07-25T15:05:06.949Z,96.00
2017-07-25T15:07:35.210Z,96.30
2017-07-25T15:10:03.570Z,95.80
2017-07-25T15:12:31.838Z,95.20
2017-07-25T15:14:59.306Z,95.20
2017-07-25T15:17:26.910Z,95.50
2017-07-25T15:19:55.143Z,95.10
2017-07-25T15:22:22.662Z,95.10
2017-07-25T15:24:50.367Z,95.10
2017-07-25T15:27:18.625Z,94.40
2017-07-25T15:29:46.881Z,94.30
2017-07-25T15:32:15.134Z,94.00
2017-07-25T15:34:43.370Z,94.10
2017-07-25T15:37:10.850Z,94.10
2017-07-25T15:39:38.402Z,92.00
2017-07-25T15:42:06.661Z,92.80
2017-07-25T15:44:34.891Z,93.10
2017-07-25T15:47:02.390Z,93.10
2017-07-25T15:49:29.913Z,92.60
2017-07-25T15:51:58.145Z,93.20
2017-07-25T15:54:25.714Z,93.20
2017-07-25T15:56:53.983Z,93.30
2017-07-25T15:59:21.522Z,93.30
2017-07-25T16:01:49.754Z,94.00
2017-07-25T16:04:17.319Z,94.00
2017-07-25T16:06:45.585Z,93.50
2017-07-25T16:09:13.845Z,93.90
2017-07-25T16:11:42.212Z,93.10
2017-07-25T16:14:09.742Z,93.10
2017-07-25T16:16:37.974Z,93.20
2017-07-25T16:19:05.552Z,93.10
2017-07-25T16:21:33.890Z,93.30
2017-07-25T16:24:01.362Z,93.30
2017-07-25T16:26:28.903Z,93.20
2017-07-25T16:28:56.437Z,93.50
2017-07-25T16:31:24.722Z,93.80
2017-07-25T16:33:52.177Z,93.80
2017-07-25T16:36:19.686Z,93.90
2017-07-25T16:38:47.250Z,94.20
2017-07-25T16:41:15.511Z,94.10
2017-07-25T16:43:43.874Z,94.20
2017-07-25T16:46:12.106Z,94.30
2017-07-25T16:48:39.666Z,94.30
2017-07-25T16:51:07.906Z,94.20
2017-07-25T16:53:35.477Z,94.20
2017-07-25T16:56:03.715Z,94.20
2017-07-25T16:58:31.173Z,94.10
2017-07-25T17:00:59.438Z,94.10
2017-07-25T17:03:27.674Z,94.50
2017-07-25T17:05:55.242Z,94.50
2017-07-25T17:08:23.506Z,94.50
2017-07-25T17:10:51.765Z,94.40
2017-07-25T17:13:20.025Z,94.50
2017-07-25T17:15:48.391Z,94.60
2017-07-25T17:18:16.647Z,94.70
2017-07-25T17:20:44.910Z,94.90
2017-07-25T17:23:13.179Z,94.40
2017-07-25T17:25:40.686Z,94.40
2017-07-25T17:28:08.262Z,95.00
2017-07-25T17:30:36.497Z,94.80
2017-07-25T17:33:04.063Z,94.80
2017-07-25T17:35:31.607Z,94.90
2017-07-25T17:37:59.865Z,95.60
2017-07-25T17:40:27.398Z,95.60
2017-07-25T17:42:54.871Z,95.50
2017-07-25T17:45:22.385Z,95.40
2017-07-25T17:47:49.922Z,95.50
2017-07-25T17:50:17.466Z,95.60
2017-07-25T17:52:45.730Z,95.50
2017-07-25T17:55:13.378Z,95.50
2017-07-25T17:57:40.919Z,95.80
2017-07-25T18:00:09.153Z,95.70
2017-07-25T18:02:36.671Z,95.70
2017-07-25T18:05:04.163Z,95.60
2017-07-25T18:07:32.402Z,96.00
2017-07-25T18:10:00.885Z,95.70
2017-07-25T18:12:29.145Z,95.60
2017-07-25T18:14:57.386Z,95.80
2017-07-25T18:17:25.870Z,95.80
2017-07-25T18:19:54.129Z,95.60
2017-07-25T18:22:22.394Z,95.60
2017-07-25T18:24:49.902Z,95.50
2017-07-25T18:27:17.370Z,95.50
2017-07-25T18:29:45.638Z,95.60
2017-07-25T18:32:13.145Z,95.60
2017-07-25T18:34:40.722Z,95.30
2017-07-25T18:37:08.969Z,95.60
2017-07-25T18:39:36.542Z,95.60
2017-07-25T18:42:04.014Z,95.80
2017-07-25T18:44:31.522Z,95.80
2017-07-25T18:46:59.886Z,96.10
2017-07-25T18:49:27.362Z,96.10
2017-07-25T18:51:54.833Z,96.00
2017-07-25T18:54:22.521Z,96.20
2017-07-25T18:56:50.058Z,96.30
2017-07-25T18:59:17.534Z,96.60
2017-07-25T19:01:45.035Z,96.20
2017-07-25T19:04:13.310Z,95.80
2017-07-25T19:06:40.846Z,95.80
2017-07-25T19:09:09.310Z,96.10
2017-07-25T19:11:37.556Z,96.30
2017-07-25T19:14:05.798Z,96.20
2017-07-25T19:16:33.374Z,96.20
2017-07-25T19:19:01.638Z,96.30
2017-07-25T19:21:29.173Z,96.30
2017-07-25T19:23:57.445Z,96.40
2017-07-25T19:26:24.982Z,96.40
2017-07-25T19:28:52.506Z,96.60
2017-07-25T19:31:20.786Z,96.30
2017-07-25T19:33:48.258Z,96.00
2017-07-25T19:36:16.557Z,96.20
2017-07-25T19:38:44.131Z,96.20
2017-07-25T19:41:12.359Z,96.20
2017-07-25T19:43:39.836Z,96.20
2017-07-25T19:46:08.195Z,96.40
2017-07-25T19:48:36.429Z,96.20
2017-07-25T19:51:03.900Z,96.20
2017-07-25T19:53:31.433Z,96.10
2017-07-25T19:55:59.674Z,95.90
2017-07-25T19:58:27.237Z,95.80
2017-07-25T20:00:55.497Z,96.20
2017-07-25T20:03:23.762Z,96.20
2017-07-25T20:05:52.003Z,96.10
2017-07-25T20:08:19.566Z,96.10
2017-07-25T20:10:47.822Z,96.30
2017-07-25T20:13:16.058Z,96.40
2017-07-25T20:15:43.526Z,96.50
2017-07-25T20:18:11.802Z,96.40
2017-07-25T20:20:39.338Z,96.40
2017-07-25T20:23:06.801Z,96.40
2017-07-25T20:25:34.317Z,96.30
2017-07-25T20:28:02.579Z,96.20
2017-07-25T20:30:30.219Z,96.20
2017-07-25T20:32:58.505Z,96.60
2017-07-25T20:35:26.021Z,96.50
2017-07-25T20:37:54.258Z,96.40
2017-07-25T20:40:22.533Z,96.10
2017-07-25T20:42:50.794Z,96.30
2017-07-25T20:45:19.162Z,96.30
2017-07-25T20:47:47.524Z,96.20
2017-07-25T20:50:15.782Z,96.20
2017-07-25T20:52:44.049Z,96.20
2017-07-25T20:55:11.589Z,96.20
2017-07-25T20:57:39.850Z,96.20
2017-07-25T21:00:07.326Z,96.20
2017-07-25T21:02:34.933Z,96.40
2017-07-25T21:05:03.193Z,96.60
2017-07-25T21:07:31.454Z,96.80
2017-07-25T21:09:59.922Z,96.90
2017-07-25T21:12:28.158Z,97.10
2017-07-25T21:14:56.399Z,97.40
2017-07-25T21:17:23.982Z,96.90
2017-07-25T21:19:52.246Z,97.20
2017-07-25T21:22:20.100Z,97.10
2017-07-25T21:24:47.610Z,97.20
2017-07-25T21:27:15.182Z,97.00
2017-07-25T21:29:43.443Z,97.00
2017-07-25T21:32:10.985Z,97.00
2017-07-25T21:34:38.630Z,97.10
2017-07-25T21:37:06.873Z,96.70
2017-07-25T21:39:34.463Z,96.70
2017-07-25T21:42:01.946Z,96.90
2017-07-25T21:44:29.418Z,96.90
2017-07-25T21:46:57.006Z,96.90
2017-07-25T21:49:24.546Z,96.80
2017-07-25T21:51:52.051Z,96.90
2017-07-25T21:54:19.526Z,96.80
2017-07-25T21:56:47.770Z,96.90
2017-07-25T21:59:15.309Z,96.90
2017-07-25T22:01:54.572Z,97.00
2017-07-25T22:04:34.213Z,97.00
2017-07-25T22:07:01.718Z,97.00
2017-07-25T22:09:30.083Z,97.00
2017-07-25T22:11:58.470Z,97.00
2017-07-25T22:14:25.953Z,97.00
2017-07-25T22:16:53.426Z,96.90
2017-07-25T22:19:21.790Z,96.70
2017-07-25T22:21:49.266Z,96.70
2017-07-25T22:24:16.778Z,96.70
2017-07-25T22:26:44.527Z,96.90
2017-07-25T22:29:12.069Z,96.80
2017-07-25T22:31:39.618Z,96.60
2017-07-25T22:34:07.362Z,96.70
2017-07-25T22:36:34.842Z,96.60
2017-07-25T22:39:02.318Z,96.60
2017-07-25T22:41:29.829Z,96.60
2017-07-25T22:43:57.350Z,96.50
2017-07-25T22:46:25.614Z,96.60
2017-07-25T22:48:53.164Z,96.60
2017-07-25T22:51:20.698Z,96.60
2017-07-25T22:53:48.175Z,96.60
2017-07-25T22:56:15.782Z,96.60
2017-07-25T22:58:44.023Z,96.90
2017-07-25T23:01:11.608Z,96.90
2017-07-25T23:03:39.240Z,96.90
2017-07-25T23:06:06.718Z,96.80
2017-07-25T23:08:34.210Z,96.80
2017-07-25T23:11:02.482Z,96.80
2017-07-25T23:13:30.022Z,96.80
2017-07-25T23:15:58.429Z,96.80
2017-07-25T23:18:25.929Z,96.80
2017-07-25T23:20:54.189Z,96.70
2017-07-25T23:23:21.735Z,96.70
2017-07-25T23:25:49.274Z,96.80
2017-07-25T23:28:16.818Z,96.80
2017-07-25T23:30:45.178Z,97.10
2017-07-25T23:33:13.442Z,97.00
2017-07-25T23:35:40.986Z,97.00
2017-07-25T23:38:09.254Z,96.80
2017-07-25T23:40:37.518Z,96.50
2017-07-25T23:43:05.010Z,96.50
2017-07-25T23:45:32.486Z,96.60
2017-07-25T23:48:00.766Z,97.00
2017-07-25T23:50:28.275Z,96.60
2017-07-25T23:52:55.746Z,96.50
2017-07-25T23:55:23.226Z,96.80
2017-07-25T23:57:50.830Z,96.70
